createdAt,value
2023-04-05T00:00:42.111Z,2.8
2023-04-05T00:01:51.655Z,3.1
2023-04-05T00:03:00.420Z,2.7
2023-04-05T00:04:08.137Z,2.8
2023-04-05T00:05:17.626Z,2.3
2023-04-05T00:06:25.292Z,2.9
2023-04-05T00:07:34.963Z,2.9
2023-04-05T00:08:43.604Z,2.8
2023-04-05T00:09:51.259Z,2.8
2023-04-05T00:11:00.907Z,2.4
2023-04-05T00:12:07.581Z,1.8
2023-04-05T00:13:16.333Z,2.6
2023-04-05T00:14:26.003Z,2.3
2023-04-05T00:15:32.624Z,1.9
2023-04-05T00:16:42.354Z,1.9
2023-04-05T00:17:52.088Z,1.7
2023-04-05T00:18:59.707Z,2.2
2023-04-05T00:20:09.351Z,1.9
2023-04-05T00:21:17.073Z,1.6
2023-04-05T00:22:25.723Z,1.4
2023-04-05T00:23:35.397Z,2
2023-04-05T00:24:44.072Z,2.5
2023-04-05T00:25:53.801Z,1.9
2023-04-05T00:27:02.442Z,1.9
2023-04-05T00:28:10.116Z,2
2023-04-05T00:29:19.760Z,2.1
2023-04-05T00:30:27.556Z,1.8
2023-04-05T00:31:36.208Z,1.6
2023-04-05T00:32:45.773Z,2.2
2023-04-05T00:33:56.406Z,2.3
2023-04-05T00:35:06.067Z,1.7
2023-04-05T00:36:14.851Z,1.9
2023-04-05T00:37:23.418Z,1.8
2023-04-05T00:38:33.156Z,1.5
2023-04-05T00:39:40.888Z,1.9
2023-04-05T00:40:50.538Z,2.3
2023-04-05T00:42:00.206Z,1.4
2023-04-05T00:43:07.892Z,2.1
2023-04-05T00:44:17.580Z,1.8
2023-04-05T00:45:26.257Z,2.1
2023-04-05T00:46:34.980Z,2.3
2023-04-05T00:47:44.678Z,2
2023-04-05T00:48:53.264Z,1.6
2023-04-05T00:50:02.920Z,1.4
2023-04-05T00:51:12.633Z,2.1
2023-04-05T00:52:20.289Z,2.1
2023-04-05T00:53:29.956Z,2
2023-04-05T00:54:38.607Z,1.8
2023-04-05T00:55:48.291Z,1.4
2023-04-05T00:56:57.981Z,1.8
2023-04-05T00:58:05.659Z,2
2023-04-05T00:59:14.365Z,1.6
2023-04-05T01:00:23.944Z,1.4
2023-04-05T01:01:31.637Z,2.7
2023-04-05T01:02:41.333Z,1.9
2023-04-05T01:03:50.942Z,1.5
2023-04-05T01:04:58.590Z,1.6
2023-04-05T01:06:09.754Z,1.4
2023-04-05T01:07:17.928Z,2.1
2023-04-05T01:08:25.592Z,2.5
2023-04-05T01:09:35.256Z,2.2
2023-04-05T01:10:43.916Z,1.8
2023-04-05T01:11:53.596Z,1.5
2023-04-05T01:13:03.265Z,1.5
2023-04-05T01:14:11.906Z,1.4
2023-04-05T01:15:20.555Z,1.7
2023-04-05T01:16:30.196Z,1.9
2023-04-05T01:17:37.892Z,2.3
2023-04-05T01:18:47.616Z,1.7
2023-04-05T01:19:56.220Z,1.7
2023-04-05T01:21:04.862Z,2.2
2023-04-05T01:22:14.572Z,1.5
2023-04-05T01:23:24.240Z,1.7
2023-04-05T01:24:32.887Z,1.8
2023-04-05T01:25:42.538Z,1.5
2023-04-05T01:26:50.219Z,1.7
2023-04-05T01:27:59.868Z,1.8
2023-04-05T01:29:08.518Z,1.9
2023-04-05T01:30:16.159Z,1.5
2023-04-05T01:31:25.826Z,1.6
2023-04-05T01:32:33.500Z,1.4
2023-04-05T01:33:42.136Z,1.5
2023-04-05T01:34:51.837Z,1.6
2023-04-05T01:36:00.634Z,1.7
2023-04-05T01:37:10.271Z,1.4
2023-04-05T01:38:19.937Z,1.8
2023-04-05T01:39:29.607Z,1.6
2023-04-05T01:40:38.314Z,1.9
2023-04-05T01:41:46.904Z,2.2
2023-04-05T01:42:55.595Z,1.4
2023-04-05T01:44:05.250Z,2
2023-04-05T01:45:12.901Z,1.7
2023-04-05T01:46:22.632Z,1.7
2023-04-05T01:47:31.303Z,1.8
2023-04-05T01:48:38.903Z,1.9
2023-04-05T01:49:48.567Z,1
2023-04-05T01:50:57.272Z,1.6
2023-04-05T01:52:06.945Z,1.9
2023-04-05T01:53:16.627Z,2.1
2023-04-05T01:54:26.290Z,1.7
2023-04-05T01:55:36.940Z,1.3
2023-04-05T01:56:45.580Z,1.5
2023-04-05T01:57:54.263Z,1.6
2023-04-05T01:59:03.955Z,1.8
2023-04-05T02:00:12.585Z,1.4
2023-04-05T02:01:23.281Z,1.6
2023-04-05T02:02:33.014Z,1.5
2023-04-05T02:03:42.754Z,1.4
2023-04-05T02:04:52.323Z,1.4
2023-04-05T02:05:59.996Z,1.6
2023-04-05T02:07:07.659Z,1.4
2023-04-05T02:08:17.322Z,1.3
2023-04-05T02:09:25.956Z,1.1
2023-04-05T02:10:35.613Z,1.6
2023-04-05T02:11:45.274Z,1.6
2023-04-05T02:12:53.964Z,1.2
2023-04-05T02:14:03.620Z,1.5
2023-04-05T02:15:13.278Z,1.7
2023-04-05T02:16:21.952Z,2
2023-04-05T02:17:31.619Z,1.4
2023-04-05T02:18:41.274Z,1.7
2023-04-05T02:19:49.926Z,1
2023-04-05T02:20:58.605Z,1.5
2023-04-05T02:22:07.374Z,1.1
2023-04-05T02:23:16.962Z,1.1
2023-04-05T02:24:26.614Z,1.2
2023-04-05T02:25:34.370Z,0.9
2023-04-05T02:26:44.061Z,1.8
2023-04-05T02:27:52.743Z,1.5
2023-04-05T02:29:01.395Z,1.1
2023-04-05T02:30:10.043Z,1.3
2023-04-05T02:31:17.716Z,1.2
2023-04-05T02:32:27.506Z,1.6
2023-04-05T02:33:37.108Z,1.5
2023-04-05T02:34:44.763Z,1.2
2023-04-05T02:35:54.442Z,1.6
2023-04-05T02:37:04.101Z,1.3
2023-04-05T02:38:13.857Z,1.9
2023-04-05T02:39:23.430Z,1.4
2023-04-05T02:40:31.083Z,1.5
2023-04-05T02:41:40.758Z,1.1
2023-04-05T02:42:50.437Z,1.1
2023-04-05T02:43:59.101Z,1.3
2023-04-05T02:45:08.791Z,1.4
2023-04-05T02:46:17.474Z,1.7
2023-04-05T02:47:26.121Z,1.6
2023-04-05T02:48:35.821Z,1.2
2023-04-05T02:49:43.560Z,1.7
2023-04-05T02:50:53.202Z,1.3
2023-04-05T02:52:01.864Z,1.2
2023-04-05T02:53:10.580Z,1.4
2023-04-05T02:54:20.358Z,1.3
2023-04-05T02:55:28.986Z,1
2023-04-05T02:56:37.638Z,1.2
2023-04-05T02:57:47.467Z,1.5
2023-04-05T02:58:57.042Z,1.3
2023-04-05T03:00:06.750Z,1.2
2023-04-05T03:01:15.434Z,1.4
2023-04-05T03:02:24.429Z,1.2
2023-04-05T03:03:33.217Z,2.2
2023-04-05T03:04:42.806Z,1.5
2023-04-05T03:05:50.466Z,1.6
2023-04-05T03:07:00.122Z,1.3
2023-04-05T03:08:08.818Z,1.3
2023-04-05T03:09:16.480Z,1.3
2023-04-05T03:10:26.225Z,1.6
2023-04-05T03:11:34.786Z,1.6
2023-04-05T03:12:43.473Z,1.2
2023-04-05T03:13:53.120Z,1.6
2023-04-05T03:15:02.775Z,1.8
2023-04-05T03:16:12.496Z,1.5
2023-04-05T03:17:21.131Z,1.7
2023-04-05T03:18:29.781Z,1.4
2023-04-05T03:19:39.433Z,1.1
2023-04-05T03:20:48.104Z,2
2023-04-05T03:21:56.760Z,1.7
2023-04-05T03:23:06.461Z,1.2
2023-04-05T03:24:14.108Z,1.2
2023-04-05T03:25:23.767Z,1.6
2023-04-05T03:26:32.438Z,1.6
2023-04-05T03:27:40.077Z,1.2
2023-04-05T03:28:49.740Z,1.6
2023-04-05T03:29:57.391Z,1.6
2023-04-05T03:31:07.059Z,1.3
2023-04-05T03:32:16.735Z,1.7
2023-04-05T03:33:24.456Z,1.8
2023-04-05T03:34:34.120Z,1.3
2023-04-05T03:35:42.955Z,1.2
2023-04-05T03:36:51.411Z,1.5
2023-04-05T03:38:01.105Z,1.6
2023-04-05T03:39:08.742Z,1.6
2023-04-05T03:40:18.400Z,1.4
2023-04-05T03:41:28.029Z,1.1
2023-04-05T03:42:37.799Z,1.5
2023-04-05T03:43:47.424Z,1.1
2023-04-05T03:44:56.081Z,1.3
2023-04-05T03:46:03.791Z,1.6
2023-04-05T03:47:13.389Z,1.6
2023-04-05T03:48:22.075Z,1.3
2023-04-05T03:49:30.713Z,1.2
2023-04-05T03:50:40.357Z,1
2023-04-05T03:51:48.002Z,1.1
2023-04-05T03:52:57.793Z,1.4
2023-04-05T03:54:07.470Z,1.6
2023-04-05T03:55:16.124Z,1.3
2023-04-05T03:56:25.791Z,1.1
2023-04-05T03:57:33.475Z,1.3
2023-04-05T03:58:42.143Z,1.2
2023-04-05T03:59:51.760Z,1.2
2023-04-05T04:01:00.487Z,0.9
2023-04-05T04:02:10.176Z,1.2
2023-04-05T04:03:19.850Z,1.4
2023-04-05T04:04:28.538Z,1
2023-04-05T04:05:38.279Z,1.6
2023-04-05T04:06:45.909Z,1.3
2023-04-05T04:07:54.600Z,1
2023-04-05T04:09:04.265Z,1.1
2023-04-05T04:10:12.917Z,1.2
2023-04-05T04:11:22.569Z,1.1
2023-04-05T04:12:32.217Z,1.5
2023-04-05T04:13:40.875Z,1.7
2023-04-05T04:14:50.677Z,1.2
2023-04-05T04:15:58.201Z,1.2
2023-04-05T04:17:07.851Z,1.5
2023-04-05T04:18:17.527Z,1.4
2023-04-05T04:19:27.183Z,1.3
2023-04-05T04:20:36.864Z,1.4
2023-04-05T04:21:45.513Z,1.1
2023-04-05T04:22:53.200Z,1.1
2023-04-05T04:24:02.942Z,1.1
2023-04-05T04:25:10.812Z,1.2
2023-04-05T04:26:19.247Z,1.3
2023-04-05T04:27:28.963Z,1.4
2023-04-05T04:28:36.693Z,1.9
2023-04-05T04:29:46.380Z,1.1
2023-04-05T04:30:56.105Z,1.1
2023-04-05T04:32:05.913Z,1.5
2023-04-05T04:33:15.445Z,0.8
2023-04-05T04:34:25.138Z,1.1
2023-04-05T04:35:33.874Z,1.1
2023-04-05T04:36:43.566Z,1.1
2023-04-05T04:37:52.407Z,1.8
2023-04-05T04:39:02.087Z,1.5
2023-04-05T04:40:10.867Z,1.1
2023-04-05T04:41:19.652Z,1.1
2023-04-05T04:42:29.312Z,1
2023-04-05T04:43:37.145Z,1.1
2023-04-05T04:44:47.854Z,1.4
2023-04-05T04:45:57.627Z,1.5
2023-04-05T04:47:05.225Z,1.5
2023-04-05T04:48:14.921Z,1.6
2023-04-05T04:49:23.574Z,1.3
2023-04-05T04:50:33.251Z,1.3
2023-04-05T04:51:44.416Z,1.2
2023-04-05T04:52:53.154Z,2.2
2023-04-05T04:54:01.843Z,1.4
2023-04-05T04:55:11.582Z,1.5
2023-04-05T04:56:20.256Z,1.6
2023-04-05T04:57:30.000Z,1.9
2023-04-05T04:58:38.700Z,1.8
2023-04-05T04:59:48.349Z,1.5
2023-04-05T05:00:57.040Z,1.5
2023-04-05T05:02:06.835Z,1.2
2023-04-05T05:03:14.561Z,1.5
2023-04-05T05:04:24.355Z,1.5
2023-04-05T05:05:32.983Z,1.7
2023-04-05T05:06:40.639Z,1.9
2023-04-05T05:07:50.376Z,1.6
2023-04-05T05:08:58.074Z,1.8
2023-04-05T05:10:06.763Z,1.4
2023-04-05T05:11:16.453Z,1.8
2023-04-05T05:12:24.112Z,1.2
2023-04-05T05:13:33.824Z,1.3
2023-04-05T05:14:42.473Z,1.2
2023-04-05T05:15:51.198Z,1.6
2023-04-05T05:17:00.968Z,1.8
2023-04-05T05:18:09.774Z,1.4
2023-04-05T05:19:18.389Z,1.6
2023-04-05T05:20:28.045Z,1.5
2023-04-05T05:21:36.745Z,1.5
2023-04-05T05:22:46.393Z,1.7
2023-04-05T05:23:56.090Z,1.6
2023-04-05T05:25:03.847Z,1.1
2023-04-05T05:26:13.651Z,1.8
2023-04-05T05:27:22.579Z,1.8
2023-04-05T05:28:31.488Z,1.8
2023-04-05T05:29:41.156Z,1.6
2023-04-05T05:30:48.855Z,1.4
2023-04-05T05:31:58.527Z,1.7
2023-04-05T05:33:08.246Z,1.5
2023-04-05T05:34:16.909Z,2.4
2023-04-05T05:35:25.549Z,2.4
2023-04-05T05:36:34.197Z,2.1
2023-04-05T05:37:42.872Z,1.4
2023-04-05T05:38:52.585Z,1.5
2023-04-05T05:40:02.263Z,1.9
2023-04-05T05:41:11.958Z,1.4
2023-04-05T05:42:20.620Z,1.7
2023-04-05T05:43:29.382Z,1.3
2023-04-05T05:44:39.074Z,1.7
2023-04-05T05:45:48.789Z,1.3
2023-04-05T05:46:57.459Z,1.8
2023-04-05T05:48:07.192Z,1.6
2023-04-05T05:49:15.857Z,1.2
2023-04-05T05:50:25.665Z,1.6
2023-04-05T05:51:34.223Z,1.4
2023-04-05T05:52:42.912Z,2.1
2023-04-05T05:53:52.596Z,2
2023-04-05T05:55:00.270Z,2.2
2023-04-05T05:56:08.978Z,1.9
2023-04-05T05:57:18.677Z,1.6
2023-04-05T05:58:26.401Z,2.2
2023-04-05T05:59:36.091Z,1.5
2023-04-05T06:00:44.751Z,2.1
2023-04-05T06:01:54.451Z,1.8
2023-04-05T06:03:04.216Z,1.5
2023-04-05T06:04:12.949Z,1.7
2023-04-05T06:05:22.577Z,1.3
2023-04-05T06:06:32.348Z,1.7
2023-04-05T06:07:41.011Z,1.5
2023-04-05T06:08:50.705Z,1.5
2023-04-05T06:09:59.356Z,1.7
2023-04-05T06:11:07.026Z,1.4
2023-04-05T06:12:16.685Z,1.6
2023-04-05T06:13:26.376Z,1.6
2023-04-05T06:14:35.058Z,1.5
2023-04-05T06:15:44.715Z,1.1
2023-04-05T06:16:53.391Z,1.5
2023-04-05T06:18:03.269Z,2
2023-04-05T06:19:11.848Z,2.6
2023-04-05T06:20:20.552Z,3.5
2023-04-05T06:21:30.239Z,2.6
2023-04-05T06:22:39.932Z,2.5
2023-04-05T06:23:48.619Z,3
2023-04-05T06:24:58.274Z,2.2
2023-04-05T06:26:07.956Z,2.2
2023-04-05T06:27:17.644Z,2.1
2023-04-05T06:28:28.279Z,3.3
2023-04-05T06:29:37.983Z,1.5
2023-04-05T06:30:47.636Z,2.1
2023-04-05T06:31:57.312Z,1.4
2023-04-05T06:33:07.088Z,3.1
2023-04-05T06:34:16.701Z,1.6
2023-04-05T06:35:25.419Z,1.6
2023-04-05T06:36:35.083Z,1.7
2023-04-05T06:37:44.774Z,2
2023-04-05T06:38:52.427Z,1.7
2023-04-05T06:40:02.119Z,2.7
2023-04-05T06:41:09.784Z,2.4
2023-04-05T06:42:18.505Z,1.2
2023-04-05T06:43:28.168Z,1.2
2023-04-05T06:44:37.858Z,1.4
2023-04-05T06:45:47.649Z,1.7
2023-04-05T06:46:56.318Z,2.5
2023-04-05T06:48:06.042Z,2.5
2023-04-05T06:49:15.713Z,2.5
2023-04-05T06:50:24.399Z,2.5
2023-04-05T06:51:34.108Z,2.4
2023-04-05T06:52:43.786Z,2.8
2023-04-05T06:53:53.554Z,4.1
2023-04-05T06:55:03.163Z,4.9
2023-04-05T06:56:11.847Z,2.1
2023-04-05T06:57:20.542Z,1.5
2023-04-05T06:58:29.197Z,1.8
2023-04-05T06:59:38.895Z,2.2
2023-04-05T07:00:48.573Z,1.7
2023-04-05T07:01:58.244Z,1.4
2023-04-05T07:03:07.942Z,1.6
2023-04-05T07:04:17.675Z,1.6
2023-04-05T07:05:27.329Z,1.6
2023-04-05T07:06:36.996Z,1.6
2023-04-05T07:07:46.880Z,1.5
2023-04-05T07:08:56.380Z,1.8
2023-04-05T07:10:04.181Z,1.7
2023-04-05T07:11:13.854Z,1.7
2023-04-05T07:12:23.643Z,2.1
2023-04-05T07:13:31.331Z,1.7
2023-04-05T07:14:41.025Z,2.3
2023-04-05T07:15:50.797Z,2.1
2023-04-05T07:17:00.589Z,1.9
2023-04-05T07:18:10.172Z,2.2
2023-04-05T07:19:18.934Z,2.3
2023-04-05T07:20:28.595Z,2.8
2023-04-05T07:21:37.437Z,2.6
2023-04-05T07:22:45.010Z,2.1
2023-04-05T07:23:55.800Z,1.6
2023-04-05T07:25:04.399Z,1.8
2023-04-05T07:26:14.038Z,2.8
2023-04-05T07:27:23.701Z,2.5
2023-04-05T07:28:31.371Z,1.6
2023-04-05T07:29:41.045Z,2.4
2023-04-05T07:30:50.713Z,1.7
2023-04-05T07:31:59.424Z,1.4
2023-04-05T07:33:09.174Z,1.5
2023-04-05T07:34:18.833Z,1.5
2023-04-05T07:35:28.498Z,1.5
2023-04-05T07:36:38.162Z,1.4
2023-04-05T07:37:47.886Z,2
2023-04-05T07:38:57.628Z,1.4
2023-04-05T07:40:07.360Z,1.4
2023-04-05T07:41:16.038Z,1.2
2023-04-05T07:42:25.704Z,1.9
2023-04-05T07:43:33.356Z,1.6
2023-04-05T07:44:43.287Z,1.9
2023-04-05T07:45:52.934Z,1.3
2023-04-05T07:47:02.613Z,1.8
2023-04-05T07:48:12.291Z,1.8
2023-04-05T07:49:22.117Z,1.5
2023-04-05T07:50:30.817Z,1.4
2023-04-05T07:51:39.465Z,3.2
2023-04-05T07:52:48.118Z,3.8
2023-04-05T07:53:57.798Z,1.7
2023-04-05T07:55:07.468Z,1.6
2023-04-05T07:56:17.418Z,1.9
2023-04-05T07:57:26.854Z,1.7
2023-04-05T07:58:36.536Z,1.5
2023-04-05T07:59:45.285Z,1.4
2023-04-05T08:00:55.001Z,1.5
2023-04-05T08:02:12.298Z,1.9
2023-04-05T08:03:15.399Z,1.6
2023-04-05T08:04:25.056Z,1.7
2023-04-05T08:05:34.752Z,1.6
2023-04-05T08:06:44.489Z,1.8
2023-04-05T08:07:53.143Z,1.3
2023-04-05T08:09:00.818Z,1.6
2023-04-05T08:10:10.525Z,1.3
2023-04-05T08:11:20.244Z,1.1
2023-04-05T08:12:28.897Z,1.1
2023-04-05T08:13:38.577Z,1.5
2023-04-05T08:14:47.309Z,1.1
2023-04-05T08:15:56.995Z,1.9
2023-04-05T08:17:06.655Z,1
2023-04-05T08:18:15.308Z,1.2
2023-04-05T08:19:25.025Z,1.4
2023-04-05T08:20:32.701Z,1.5
2023-04-05T08:21:41.375Z,1.7
2023-04-05T08:22:51.067Z,1.6
2023-04-05T08:23:59.715Z,1.5
2023-04-05T08:25:09.460Z,1.3
2023-04-05T08:26:19.274Z,1.9
2023-04-05T08:27:27.049Z,2
2023-04-05T08:28:35.665Z,1.9
2023-04-05T08:29:44.356Z,1.9
2023-04-05T08:30:53.027Z,1.5
2023-04-05T08:32:02.777Z,1.8
2023-04-05T08:33:11.468Z,1.7
2023-04-05T08:34:21.135Z,1.5
2023-04-05T08:35:30.832Z,1.8
2023-04-05T08:36:38.452Z,1.7
2023-04-05T08:37:47.168Z,1.6
2023-04-05T08:38:56.875Z,1.6
2023-04-05T08:40:06.622Z,1.7
2023-04-05T08:41:16.289Z,1.7
2023-04-05T08:42:23.941Z,1.6
2023-04-05T08:43:33.646Z,1.2
2023-04-05T08:44:43.329Z,1.9
2023-04-05T08:45:51.012Z,1.4
2023-04-05T08:47:00.777Z,1.5
2023-04-05T08:48:08.465Z,1.5
2023-04-05T08:49:17.118Z,1.1
2023-04-05T08:50:26.785Z,1.1
2023-04-05T08:51:36.467Z,1.2
2023-04-05T08:52:46.146Z,1.3
2023-04-05T08:53:54.879Z,1.8
2023-04-05T08:55:03.601Z,1.2
2023-04-05T08:56:13.281Z,0.7
2023-04-05T08:57:22.937Z,1.2
2023-04-05T08:58:30.657Z,0.8
2023-04-05T08:59:40.381Z,1.1
2023-04-05T09:00:48.002Z,1.3
2023-04-05T09:01:55.651Z,1
2023-04-05T09:03:05.367Z,0.8
2023-04-05T09:04:14.095Z,1
2023-04-05T09:05:22.826Z,1
2023-04-05T09:06:32.496Z,1
2023-04-05T09:07:42.266Z,1.1
2023-04-05T09:08:50.938Z,1.1
2023-04-05T09:10:00.659Z,0.9
2023-04-05T09:11:08.277Z,1
2023-04-05T09:12:17.918Z,0.9
2023-04-05T09:13:26.601Z,0.8
2023-04-05T09:14:34.326Z,1
2023-04-05T09:15:44.028Z,1
2023-04-05T09:16:52.804Z,0.9
2023-04-05T09:18:05.534Z,0.8
2023-04-05T09:19:13.097Z,1
2023-04-05T09:20:21.777Z,1.1
2023-04-05T09:21:31.448Z,1.1
2023-04-05T09:22:40.127Z,0.7
2023-04-05T09:23:48.801Z,1.2
2023-04-05T09:24:58.527Z,1
2023-04-05T09:26:07.234Z,0.8
2023-04-05T09:27:16.941Z,1
2023-04-05T09:28:26.588Z,0.6
2023-04-05T09:29:34.324Z,1.1
2023-04-05T09:30:44.010Z,1.1
2023-04-05T09:31:53.763Z,0.9
2023-04-05T09:33:02.475Z,1.2
2023-04-05T09:34:12.084Z,1.1
2023-04-05T09:35:20.751Z,0.9
2023-04-05T09:36:29.400Z,0.9
2023-04-05T09:37:39.075Z,0.9
2023-04-05T09:38:47.792Z,1.1
2023-04-05T09:39:57.476Z,1.1
2023-04-05T09:41:06.122Z,0.7
2023-04-05T09:42:14.792Z,1.1
2023-04-05T09:43:24.466Z,1.5
2023-04-05T09:44:33.173Z,1.1
2023-04-05T09:45:42.848Z,1.1
2023-04-05T09:46:52.496Z,1.5
2023-04-05T09:48:01.218Z,1.7
2023-04-05T09:49:10.833Z,1.3
2023-04-05T09:50:20.543Z,1
2023-04-05T09:51:29.184Z,1.2
2023-04-05T09:52:38.864Z,1.2
2023-04-05T09:53:47.600Z,1.3
2023-04-05T09:54:56.278Z,1.1
2023-04-05T09:56:05.949Z,1.3
2023-04-05T09:57:15.615Z,1.5
2023-04-05T09:58:25.294Z,1
2023-04-05T09:59:33.994Z,1.1
2023-04-05T10:00:42.782Z,1
2023-04-05T10:01:52.474Z,1.1
2023-04-05T10:03:01.242Z,0.9
2023-04-05T10:04:10.068Z,1.1
2023-04-05T10:05:19.541Z,1.1
2023-04-05T10:06:28.213Z,1.1
2023-04-05T10:07:37.867Z,0.6
2023-04-05T10:08:46.505Z,1.2
2023-04-05T10:09:54.630Z,1.4
2023-04-05T10:11:04.332Z,1.7
2023-04-05T10:12:13.984Z,1.8
2023-04-05T10:13:23.702Z,1.1
2023-04-05T10:14:32.395Z,1
2023-04-05T10:15:40.140Z,0.9
2023-04-05T10:16:49.802Z,0.8
2023-04-05T10:17:59.463Z,1
2023-04-05T10:19:07.185Z,0.9
2023-04-05T10:20:16.901Z,0.7
2023-04-05T10:21:24.551Z,1.1
2023-04-05T10:22:34.284Z,0.9
2023-04-05T10:23:43.949Z,0.9
2023-04-05T10:24:51.894Z,1.1
2023-04-05T10:26:01.792Z,0.7
2023-04-05T10:27:10.394Z,0.8
2023-04-05T10:28:20.196Z,0.8
2023-04-05T10:29:30.095Z,0.7
2023-04-05T10:30:38.822Z,0.6
2023-04-05T10:31:48.473Z,1.2
2023-04-05T10:32:58.246Z,0.8
2023-04-05T10:34:06.811Z,1
2023-04-05T10:35:15.516Z,1
2023-04-05T10:36:25.204Z,0.7
2023-04-05T10:37:33.817Z,0.9
2023-04-05T10:38:43.463Z,0.7
2023-04-05T10:39:52.278Z,0.8
2023-04-05T10:41:01.053Z,0.8
2023-04-05T10:42:10.708Z,0.9
2023-04-05T10:43:18.446Z,1
2023-04-05T10:44:28.121Z,0.9
2023-04-05T10:45:37.818Z,1.1
2023-04-05T10:46:46.411Z,0.9
2023-04-05T10:47:56.106Z,0.7
2023-04-05T10:49:03.761Z,0.9
2023-04-05T10:50:13.421Z,1.3
2023-04-05T10:51:23.090Z,1
2023-04-05T10:52:31.774Z,0.9
2023-04-05T10:53:41.396Z,0.9
2023-04-05T10:54:51.059Z,1
2023-04-05T10:55:59.769Z,1
2023-04-05T10:57:10.366Z,0.9
2023-04-05T10:58:19.111Z,0.8
2023-04-05T10:59:28.872Z,0.7
2023-04-05T11:00:38.593Z,0.7
2023-04-05T11:01:47.321Z,0.6
2023-04-05T11:02:55.954Z,0.6
2023-04-05T11:04:05.592Z,0.6
2023-04-05T11:05:13.223Z,0.7
2023-04-05T11:06:21.906Z,0.7
2023-04-05T11:07:31.558Z,0.9
2023-04-05T11:08:39.261Z,0.8
2023-04-05T11:09:48.892Z,0.5
2023-04-05T11:10:58.592Z,1
2023-04-05T11:12:08.254Z,0.9
2023-04-05T11:13:17.912Z,1.1
2023-04-05T11:14:26.567Z,0.6
2023-04-05T11:15:36.333Z,0.8
2023-04-05T11:16:45.928Z,0.7
2023-04-05T11:17:54.604Z,0.9
2023-04-05T11:19:04.307Z,0.9
2023-04-05T11:20:12.968Z,1.1
2023-04-05T11:21:21.659Z,0.8
2023-04-05T11:22:31.333Z,0.8
2023-04-05T11:23:38.958Z,0.8
2023-04-05T11:24:47.662Z,1.4
2023-04-05T11:25:57.313Z,1
2023-04-05T11:27:04.987Z,0.8
2023-04-05T11:28:14.653Z,1
2023-04-05T11:29:24.305Z,0.8
2023-04-05T11:30:32.982Z,0.9
2023-04-05T11:31:42.708Z,1
2023-04-05T11:32:52.345Z,1
2023-04-05T11:34:00.963Z,0.8
2023-04-05T11:35:10.594Z,0.7
2023-04-05T11:36:20.278Z,1
2023-04-05T11:37:29.948Z,0.8
2023-04-05T11:38:38.592Z,0.6
2023-04-05T11:39:46.247Z,0.8
2023-04-05T11:40:56.004Z,0.6
2023-04-05T11:42:03.742Z,0.8
2023-04-05T11:43:12.408Z,1.2
2023-04-05T11:44:22.013Z,0.9
2023-04-05T11:45:32.128Z,0.9
2023-04-05T11:46:41.405Z,0.7
2023-04-05T11:47:51.085Z,1
2023-04-05T11:48:59.720Z,0.9
2023-04-05T11:50:09.349Z,1.2
2023-04-05T11:51:19.043Z,1
2023-04-05T11:52:28.729Z,1
2023-04-05T11:53:38.410Z,0.7
2023-04-05T11:54:47.436Z,0.8
2023-04-05T11:55:56.756Z,0.9
2023-04-05T11:57:06.462Z,0.7
2023-04-05T11:58:16.120Z,1.3
2023-04-05T11:59:25.814Z,1.1
2023-04-05T12:00:34.465Z,1.2
2023-04-05T12:01:43.139Z,0.8
2023-04-05T12:02:52.966Z,0.7
2023-04-05T12:04:02.599Z,0.8
2023-04-05T12:05:12.424Z,1.1
2023-04-05T12:06:21.145Z,1.4
2023-04-05T12:07:28.787Z,0.9
2023-04-05T12:08:38.462Z,0.7
2023-04-05T12:09:46.158Z,1
2023-04-05T12:10:54.808Z,1.1
2023-04-05T12:12:04.484Z,1.2
2023-04-05T12:13:15.046Z,1
2023-04-05T12:14:24.665Z,1
2023-04-05T12:15:33.314Z,1.1
2023-04-05T12:16:41.011Z,1.1
2023-04-05T12:17:51.709Z,1.1
2023-04-05T12:19:00.360Z,0.7
2023-04-05T12:20:09.013Z,0.9
2023-04-05T12:21:18.653Z,1.1
2023-04-05T12:22:26.406Z,1
2023-04-05T12:23:36.073Z,1
2023-04-05T12:24:44.734Z,1
2023-04-05T12:25:53.391Z,0.8
2023-04-05T12:27:03.060Z,0.7
2023-04-05T12:28:11.713Z,0.8
2023-04-05T12:29:21.401Z,0.8
2023-04-05T12:30:31.967Z,0.6
2023-04-05T12:31:39.822Z,0.5
2023-04-05T12:32:49.338Z,0.7
2023-04-05T12:33:58.978Z,0.9
2023-04-05T12:35:08.663Z,0.9
2023-04-05T12:36:18.352Z,0.9
2023-04-05T12:37:27.003Z,0.8
2023-04-05T12:38:35.668Z,0.7
2023-04-05T12:39:46.354Z,0.7
2023-04-05T12:40:53.004Z,0.8
2023-04-05T12:42:02.690Z,0.8
2023-04-05T12:43:11.352Z,0.6
2023-04-05T12:44:20.997Z,1.1
2023-04-05T12:45:30.677Z,0.7
2023-04-05T12:46:38.377Z,0.9
2023-04-05T12:47:47.070Z,1.1
2023-04-05T12:48:56.726Z,1
2023-04-05T12:50:05.372Z,1
2023-04-05T12:51:15.024Z,1.1
2023-04-05T12:52:24.685Z,1.1
2023-04-05T12:53:33.351Z,0.8
2023-04-05T12:54:42.032Z,0.9
2023-04-05T12:55:51.678Z,1.1
2023-04-05T12:57:01.336Z,1.2
2023-04-05T12:58:11.011Z,1.3
2023-04-05T12:59:20.674Z,1.4
2023-04-05T13:00:28.327Z,1.2
2023-04-05T13:01:38.031Z,1.2
2023-04-05T13:02:46.741Z,1.2
2023-04-05T13:04:04.970Z,1.2
2023-04-05T13:05:05.951Z,1
2023-04-05T13:06:14.608Z,1.4
2023-04-05T13:07:24.299Z,0.8
2023-04-05T13:08:33.955Z,1.2
2023-04-05T13:09:43.609Z,1.3
2023-04-05T13:10:53.534Z,1
2023-04-05T13:12:01.947Z,0.8
2023-04-05T13:13:11.607Z,0.8
2023-04-05T13:14:21.285Z,0.8
2023-04-05T13:15:28.931Z,0.8
2023-04-05T13:16:38.668Z,0.8
2023-04-05T13:17:47.363Z,1
2023-04-05T13:18:55.959Z,1.5
2023-04-05T13:20:05.614Z,0.9
2023-04-05T13:21:13.320Z,1.3
2023-04-05T13:22:23.257Z,0.9
2023-04-05T13:23:32.861Z,1.2
2023-04-05T13:24:41.565Z,0.9
2023-04-05T13:25:51.219Z,1.2
2023-04-05T13:26:59.882Z,0.9
2023-04-05T13:28:09.596Z,0.9
2023-04-05T13:29:19.236Z,0.9
2023-04-05T13:30:27.866Z,1.3
2023-04-05T13:31:37.586Z,1.2
2023-04-05T13:32:47.219Z,1
2023-04-05T13:33:55.924Z,1.2
2023-04-05T13:35:05.542Z,1.4
2023-04-05T13:36:13.212Z,1.4
2023-04-05T13:37:22.824Z,0.8
2023-04-05T13:38:32.525Z,0.9
2023-04-05T13:39:41.224Z,0.9
2023-04-05T13:40:49.873Z,1.2
2023-04-05T13:41:59.538Z,1.3
2023-04-05T13:43:09.218Z,1.1
2023-04-05T13:44:18.900Z,1
2023-04-05T13:45:28.541Z,0.7
2023-04-05T13:46:37.271Z,1.1
2023-04-05T13:47:46.912Z,0.6
2023-04-05T13:48:54.558Z,1.1
2023-04-05T13:50:04.233Z,1
2023-04-05T13:51:13.884Z,1.1
2023-04-05T13:52:21.531Z,0.9
2023-04-05T13:53:31.239Z,1.2
2023-04-05T13:54:39.913Z,1.1
2023-04-05T13:55:47.606Z,1.3
2023-04-05T13:56:57.275Z,0.9
2023-04-05T13:58:05.971Z,1.1
2023-04-05T13:59:14.651Z,1
2023-04-05T14:00:24.312Z,0.9
2023-04-05T14:01:33.957Z,1
2023-04-05T14:02:43.627Z,1.3
2023-04-05T14:03:53.386Z,1.1
2023-04-05T14:05:00.921Z,0.8
2023-04-05T14:06:10.621Z,0.8
2023-04-05T14:07:18.241Z,1
2023-04-05T14:08:26.928Z,1.2
2023-04-05T14:09:36.573Z,1.1
2023-04-05T14:10:45.223Z,0.9
2023-04-05T14:11:54.896Z,1.1
2023-04-05T14:13:03.565Z,0.9
2023-04-05T14:14:12.217Z,1.2
2023-04-05T14:15:21.891Z,0.9
2023-04-05T14:16:30.585Z,1.4
2023-04-05T14:17:40.268Z,0.9
2023-04-05T14:18:49.883Z,1
2023-04-05T14:19:59.538Z,1
2023-04-05T14:21:09.193Z,1.4
2023-04-05T14:22:18.893Z,1.1
2023-04-05T14:23:26.525Z,1
2023-04-05T14:24:36.649Z,1.2
2023-04-05T14:25:44.262Z,1.5
2023-04-05T14:26:52.934Z,1
2023-04-05T14:28:02.618Z,1.2
2023-04-05T14:29:11.263Z,0.7
2023-04-05T14:30:20.928Z,1.2
2023-04-05T14:31:29.620Z,0.9
2023-04-05T14:32:37.308Z,1.4
2023-04-05T14:33:46.978Z,0.9
2023-04-05T14:34:55.614Z,1
2023-04-05T14:36:04.316Z,1.2
2023-04-05T14:37:13.949Z,1
2023-04-05T14:38:21.666Z,0.8
2023-04-05T14:39:31.297Z,1.4
2023-04-05T14:40:40.144Z,0.8
2023-04-05T14:41:46.621Z,1.2
2023-04-05T14:42:56.284Z,1.1
2023-04-05T14:44:03.959Z,1.2
2023-04-05T14:45:12.625Z,1
2023-04-05T14:46:22.461Z,0.8
2023-04-05T14:47:30.993Z,0.8
2023-04-05T14:48:40.620Z,0.9
2023-04-05T14:49:48.300Z,1
2023-04-05T14:50:56.970Z,1.1
2023-04-05T14:52:05.626Z,1
2023-04-05T14:53:15.282Z,1.1
2023-04-05T14:54:22.947Z,1
2023-04-05T14:55:32.568Z,1.2
2023-04-05T14:56:41.213Z,0.7
2023-04-05T14:57:48.887Z,1
2023-04-05T14:58:58.584Z,1
2023-04-05T15:00:06.238Z,1
2023-04-05T15:01:14.905Z,1
2023-04-05T15:02:24.591Z,1.3
2023-04-05T15:03:34.251Z,1.4
2023-04-05T15:04:43.867Z,1
2023-04-05T15:05:53.526Z,1.2
2023-04-05T15:07:03.177Z,1.3
2023-04-05T15:08:12.856Z,1
2023-04-05T15:09:22.535Z,1.3
2023-04-05T15:10:31.245Z,1.3
2023-04-05T15:11:40.876Z,1.3
2023-04-05T15:12:49.947Z,1
2023-04-05T15:13:59.231Z,1.4
2023-04-05T15:15:08.874Z,1
2023-04-05T15:16:17.642Z,0.8
2023-04-05T15:17:27.264Z,1.2
2023-04-05T15:18:34.922Z,1.4
2023-04-05T15:19:43.573Z,1.4
2023-04-05T15:20:53.238Z,1.2
2023-04-05T15:22:01.874Z,1.4
2023-04-05T15:23:11.543Z,1.4
2023-04-05T15:24:21.223Z,0.7
2023-04-05T15:25:29.905Z,0.9
2023-04-05T15:26:39.588Z,1
2023-04-05T15:27:48.243Z,1.3
2023-04-05T15:28:57.966Z,1.4
2023-04-05T15:30:07.605Z,1.4
2023-04-05T15:31:17.287Z,1.2
2023-04-05T15:32:27.072Z,1.4
2023-04-05T15:33:36.771Z,1.4
2023-04-05T15:34:45.477Z,1.5
2023-04-05T15:35:55.161Z,1.4
2023-04-05T15:37:02.798Z,1.5
2023-04-05T15:38:11.575Z,1.3
2023-04-05T15:39:21.246Z,1.4
2023-04-05T15:40:30.898Z,1.6
2023-04-05T15:41:40.547Z,1.3
2023-04-05T15:42:49.274Z,1.2
2023-04-05T15:43:57.958Z,1.6
2023-04-05T15:45:07.701Z,1.3
2023-04-05T15:46:15.383Z,1.1
2023-04-05T15:47:24.071Z,1.4
2023-04-05T15:48:33.736Z,1.4
2023-04-05T15:49:42.383Z,1.3
2023-04-05T15:50:52.069Z,1.4
2023-04-05T15:52:01.709Z,1.3
2023-04-05T15:53:09.377Z,1.4
2023-04-05T15:54:18.123Z,1.9
2023-04-05T15:55:26.773Z,1.1
2023-04-05T15:56:36.478Z,1.1
2023-04-05T15:57:46.142Z,1.1
2023-04-05T15:58:54.872Z,1.3